Welcome to my new website - This page is under development

Bauang Weathercam more information Bauang Weathercam


Thunder radar more information blitzortung!


Rain radar more information rain snow radar


Visit other webcamsites:

Live CameraLivecam

EarthCamLivecam

YoutubeYoutube live stream



Nearby METAR Reports

   
RPLC - Angeles/Pampanga, Philippines
Distance from station: S 165 km
Updated: 18-09-2019 13:00
Light Rain, Overcast  
Light Rain, Overcast  
   Wind: North 1.5 m/s
Wind: North 1.5 m/s
Temperature: 28°C
Heat Index: 33°C
Dew Point: 25°C
Humidity: 84%
Barometer: 1007 hPa
Clouds: Overcast
Visibility: 4 km
Cloud details: Partly Cloudy 609.6 m,
Overcast 3048 m
RPLC 180500Z 35003KT 4000 -RA SCT020 OVC100 28/25 Q1007 RMK A2974
RPLI - Laoag Intl(Ph-Ar, Philippines
Distance from station: N 172 km
Updated: 18-09-2019 13:00
Mostly Cloudy  
Mostly Cloudy  
   Wind: NNE 5.7 m/s
Wind: NNE 5.7 m/s
Temperature: 32°C
Heat Index: 36°C
Dew Point: 22°C
Humidity: 55%
Barometer: 1005 hPa
Clouds: Mostly Cloudy
Visibility: More than 10 km
Cloud details: Partly Cloudy 548.6 m,
Mostly Cloudy 2743.2 m
RPLI 180500Z 03011KT 360V060 9999 SCT018 BKN090 32/22 Q1005 RMK A2968
RPLB - Olongapo/Subic, Philippines
Distance from station: S 203 km
Updated: 18-09-2019 13:00
Light Rain, Overcast  
Light Rain, Overcast  
   Wind: WSW 6.2 m/s
Wind: WSW 6.2 m/s
Temperature: 26°C
Dew Point: 25°C
Humidity: 94%
Barometer: 1007 hPa
Clouds: Overcast
Visibility: 7 km
Cloud details: Mostly Cloudy 487.7 m,
Overcast 2133.6 m
RPLB 180500Z 25012KT 7000 -RA BKN016 OVC070 26/25 Q1007 RMK A2974
RPLL - Ninoy Aquino Int, Philippines
Distance from station: SSE 246 km
Updated: 18-09-2019 13:00
Partly Cloudy  
Partly Cloudy  
   Wind: West 8.7 m/s
Wind: West 8.7 m/s
Temperature: 30°C
Heat Index: 35°C
Dew Point: 24°C
Humidity: 70%
Barometer: 1007 hPa
Clouds: Partly Cloudy
Visibility: More than 10 km
Cloud details: Few Clouds 701 m,
Partly Cloudy 3048 m
RPLL 180500Z 26017KT 9999 FEW023 SCT100 30/24 Q1007 NOSIG RMK A2974
RPMR - Romblon/Tablas I, Philippines
Distance from station: SSE 498 km
Updated: 18-09-2019 13:00
Few Clouds  
Few Clouds  
   Wind: SSE 5.1 m/s
Wind: SSE 5.1 m/s
Temperature: 32°C
Heat Index: 33°C
Dew Point: 19°C
Humidity: 46%
Barometer: 1012 hPa
Clouds: Few Clouds
Visibility: More than 10 km
Cloud details: Few Clouds 548.6 m
RPMR 180500Z 16010KT 9999 FEW018 32/19 Q1012 NOSIG RMK A2988
RPVP - Puerto Princesa, Philippines
Distance from station: SSW 778 km
Updated: 18-09-2019 13:00
Mostly Cloudy  
Mostly Cloudy  
   Wind: ESE 1.5 m/s
Wind: ESE 1.5 m/s
Temperature: 31°C
Heat Index: 36°C
Dew Point: 23°C
Humidity: 62%
Barometer: 1010 hPa
Clouds: Mostly Cloudy
Visibility: More than 10 km
Cloud details: Few Clouds 579.1 m,
Mostly Cloudy 2438.4 m
RPVP 180500Z 11003KT 9999 FEW019 BKN080 31/23 Q1010 RMK A2983
RPVM - Mactan-Cebu, Philippines
Distance from station: SSE 800 km
Updated: 18-09-2019 13:00
Overcast  
Overcast  
   Wind: SSW 5.7 m/s
Wind: SSW 5.7 m/s
Temperature: 32°C
Heat Index: 36°C
Dew Point: 22°C
Humidity: 55%
Barometer: 1009 hPa
Clouds: Overcast
Visibility: More than 10 km
Cloud details: Few Clouds 609.6 m,
Partly Cloudy 3048 m,
Overcast 7620 m
RPVM 180500Z 21011KT 160V230 9999 FEW020 SCT100 OVC250 32/22 Q1009 NOSIG RMK A2980
RPMZ - Zamboanga (civ/A, Philippines
Distance from station: S 1090 km
Updated: 18-09-2019 13:00
Partly Cloudy  
Partly Cloudy  
   Wind: ESE 4.1 m/s
Wind: ESE 4.1 m/s
Temperature: 31°C
Heat Index: 37°C
Dew Point: 24°C
Humidity: 66%
Barometer: 1011 hPa
Clouds: Partly Cloudy
Visibility: 9 km
Cloud details: Partly Cloudy 518.2 m
RPMZ 180500Z 12008KT 070V170 9000 SCT017 31/24 Q1011 RMK A2985
RPMD - Davao/Francisco, Philippines
Distance from station: SSE 1198 km
Updated: 18-09-2019 13:00
Partly Cloudy  
Partly Cloudy  
   Wind: South 5.1 m/s
Wind: South 5.1 m/s
Temperature: 31°C
Heat Index: 37°C
Dew Point: 24°C
Humidity: 66%
Barometer: 1010 hPa
Clouds: Partly Cloudy
Visibility: More than 10 km
Cloud details: Few Clouds 487.7 m,
Partly Cloudy 8839.2 m
RPMD 180500Z 18010KT 9999 FEW016 SCT290 31/24 Q1010 RMK A2983

Script developed by  Saratoga-weather.org Adapted for the template by  Weerstation Leuven

You find our weather info also at:

WeatherCloud

Weather Underground

Austria Weather Network

HAMweather, WeatherForYou, PWS Weather

Philippine Atmospheric, Geophysical and Astronomical Services Administration